sensor_id;sensor_type;location;lat;lon;timestamp;P1;durP1;ratioP1;P2;durP2;ratioP2
59189;SDS011;50749;51.636;4.948;2023-04-03T00:01:37;3.17;;;1.50;;
59189;SDS011;50749;51.636;4.948;2023-04-03T00:04:06;3.53;;;1.40;;
59189;SDS011;50749;51.636;4.948;2023-04-03T00:06:32;2.13;;;1.27;;
59189;SDS011;50749;51.636;4.948;2023-04-03T00:08:58;2.30;;;1.17;;
59189;SDS011;50749;51.636;4.948;2023-04-03T00:11:24;2.28;;;1.40;;
59189;SDS011;50749;51.636;4.948;2023-04-03T00:13:53;1.83;;;1.05;;
59189;SDS011;50749;51.636;4.948;2023-04-03T00:16:19;2.58;;;1.40;;
59189;SDS011;50749;51.636;4.948;2023-04-03T00:18:44;3.85;;;1.60;;
59189;SDS011;50749;51.636;4.948;2023-04-03T00:21:12;4.75;;;1.70;;
59189;SDS011;50749;51.636;4.948;2023-04-03T00:23:38;2.33;;;1.20;;
59189;SDS011;50749;51.636;4.948;2023-04-03T00:26:04;2.75;;;1.20;;
59189;SDS011;50749;51.636;4.948;2023-04-03T00:28:30;2.33;;;1.17;;
59189;SDS011;50749;51.636;4.948;2023-04-03T00:30:56;1.85;;;1.00;;
59189;SDS011;50749;51.636;4.948;2023-04-03T00:33:21;3.45;;;1.67;;
59189;SDS011;50749;51.636;4.948;2023-04-03T00:35:48;4.25;;;1.20;;
59189;SDS011;50749;51.636;4.948;2023-04-03T00:38:14;2.33;;;1.10;;
59189;SDS011;50749;51.636;4.948;2023-04-03T00:40:42;2.70;;;1.02;;
59189;SDS011;50749;51.636;4.948;2023-04-03T00:43:28;3.88;;;1.20;;
59189;SDS011;50749;51.636;4.948;2023-04-03T00:45:55;3.58;;;1.48;;
59189;SDS011;50749;51.636;4.948;2023-04-03T00:48:25;2.05;;;1.30;;
59189;SDS011;50749;51.636;4.948;2023-04-03T00:50:55;2.03;;;1.08;;
59189;SDS011;50749;51.636;4.948;2023-04-03T00:53:23;2.75;;;1.20;;
59189;SDS011;50749;51.636;4.948;2023-04-03T00:55:57;3.13;;;1.25;;
59189;SDS011;50749;51.636;4.948;2023-04-03T00:58:36;3.55;;;1.27;;
59189;SDS011;50749;51.636;4.948;2023-04-03T01:01:06;3.70;;;1.45;;
59189;SDS011;50749;51.636;4.948;2023-04-03T01:03:37;2.15;;;1.13;;
59189;SDS011;50749;51.636;4.948;2023-04-03T01:06:03;2.67;;;1.40;;
59189;SDS011;50749;51.636;4.948;2023-04-03T01:08:29;2.40;;;1.00;;
59189;SDS011;50749;51.636;4.948;2023-04-03T01:10:56;1.98;;;1.20;;
59189;SDS011;50749;51.636;4.948;2023-04-03T01:13:23;2.03;;;0.85;;
59189;SDS011;50749;51.636;4.948;2023-04-03T01:15:51;1.85;;;1.13;;
59189;SDS011;50749;51.636;4.948;2023-04-03T01:18:17;2.95;;;1.10;;
59189;SDS011;50749;51.636;4.948;2023-04-03T01:20:50;1.60;;;0.90;;
59189;SDS011;50749;51.636;4.948;2023-04-03T01:23:32;2.17;;;1.10;;
59189;SDS011;50749;51.636;4.948;2023-04-03T01:26:15;1.75;;;0.80;;
59189;SDS011;50749;51.636;4.948;2023-04-03T01:28:41;2.85;;;1.10;;
59189;SDS011;50749;51.636;4.948;2023-04-03T01:33:38;1.95;;;0.98;;
59189;SDS011;50749;51.636;4.948;2023-04-03T01:36:04;1.30;;;0.80;;
59189;SDS011;50749;51.636;4.948;2023-04-03T01:38:31;2.63;;;1.10;;
59189;SDS011;50749;51.636;4.948;2023-04-03T01:40:57;2.05;;;1.00;;
59189;SDS011;50749;51.636;4.948;2023-04-03T01:43:23;2.28;;;0.90;;
59189;SDS011;50749;51.636;4.948;2023-04-03T01:45:49;2.45;;;1.20;;
59189;SDS011;50749;51.636;4.948;2023-04-03T01:48:15;1.60;;;1.00;;
59189;SDS011;50749;51.636;4.948;2023-04-03T01:50:42;2.65;;;1.00;;
59189;SDS011;50749;51.636;4.948;2023-04-03T01:53:07;1.80;;;1.05;;
59189;SDS011;50749;51.636;4.948;2023-04-03T01:55:34;2.63;;;1.15;;
59189;SDS011;50749;51.636;4.948;2023-04-03T01:57:59;1.67;;;1.00;;
59189;SDS011;50749;51.636;4.948;2023-04-03T02:00:25;1.55;;;0.82;;
59189;SDS011;50749;51.636;4.948;2023-04-03T02:02:52;2.83;;;1.00;;
59189;SDS011;50749;51.636;4.948;2023-04-03T02:05:18;1.95;;;1.02;;
59189;SDS011;50749;51.636;4.948;2023-04-03T02:07:44;1.35;;;0.82;;
59189;SDS011;50749;51.636;4.948;2023-04-03T02:10:11;1.83;;;0.90;;
59189;SDS011;50749;51.636;4.948;2023-04-03T02:12:37;1.92;;;0.80;;
59189;SDS011;50749;51.636;4.948;2023-04-03T02:15:03;2.08;;;0.90;;
59189;SDS011;50749;51.636;4.948;2023-04-03T02:17:29;2.08;;;1.00;;
59189;SDS011;50749;51.636;4.948;2023-04-03T02:19:55;1.67;;;0.90;;
59189;SDS011;50749;51.636;4.948;2023-04-03T02:22:21;1.77;;;0.85;;
59189;SDS011;50749;51.636;4.948;2023-04-03T02:24:47;1.48;;;0.80;;
59189;SDS011;50749;51.636;4.948;2023-04-03T02:27:13;2.25;;;0.77;;
59189;SDS011;50749;51.636;4.948;2023-04-03T02:29:39;1.92;;;0.80;;
59189;SDS011;50749;51.636;4.948;2023-04-03T02:32:05;1.52;;;0.77;;
59189;SDS011;50749;51.636;4.948;2023-04-03T02:34:31;2.22;;;0.98;;
59189;SDS011;50749;51.636;4.948;2023-04-03T02:36:57;1.00;;;0.70;;
59189;SDS011;50749;51.636;4.948;2023-04-03T02:39:22;1.00;;;0.65;;
59189;SDS011;50749;51.636;4.948;2023-04-03T02:41:48;1.98;;;1.05;;
59189;SDS011;50749;51.636;4.948;2023-04-03T02:44:14;2.60;;;1.15;;
59189;SDS011;50749;51.636;4.948;2023-04-03T02:46:40;1.30;;;0.90;;
59189;SDS011;50749;51.636;4.948;2023-04-03T02:49:06;2.45;;;0.80;;
59189;SDS011;50749;51.636;4.948;2023-04-03T02:51:32;1.90;;;0.88;;
59189;SDS011;50749;51.636;4.948;2023-04-03T02:53:58;1.65;;;0.60;;
59189;SDS011;50749;51.636;4.948;2023-04-03T02:56:24;1.35;;;0.77;;
59189;SDS011;50749;51.636;4.948;2023-04-03T02:58:50;1.60;;;0.80;;
59189;SDS011;50749;51.636;4.948;2023-04-03T03:01:15;1.30;;;0.77;;
59189;SDS011;50749;51.636;4.948;2023-04-03T03:03:41;1.67;;;0.90;;
59189;SDS011;50749;51.636;4.948;2023-04-03T03:06:08;1.33;;;0.77;;
59189;SDS011;50749;51.636;4.948;2023-04-03T03:08:36;1.25;;;0.75;;
59189;SDS011;50749;51.636;4.948;2023-04-03T03:11:02;1.33;;;0.90;;
59189;SDS011;50749;51.636;4.948;2023-04-03T03:13:30;1.13;;;0.73;;
59189;SDS011;50749;51.636;4.948;2023-04-03T03:15:56;1.45;;;0.80;;
59189;SDS011;50749;51.636;4.948;2023-04-03T03:18:22;2.13;;;0.77;;
59189;SDS011;50749;51.636;4.948;2023-04-03T03:20:54;2.40;;;0.90;;
59189;SDS011;50749;51.636;4.948;2023-04-03T03:23:22;1.57;;;0.67;;
59189;SDS011;50749;51.636;4.948;2023-04-03T03:25:53;1.25;;;0.70;;
59189;SDS011;50749;51.636;4.948;2023-04-03T03:28:23;1.10;;;0.70;;
59189;SDS011;50749;51.636;4.948;2023-04-03T03:30:50;1.63;;;0.90;;
59189;SDS011;50749;51.636;4.948;2023-04-03T03:33:16;2.33;;;0.80;;
59189;SDS011;50749;51.636;4.948;2023-04-03T03:35:42;1.33;;;0.82;;
59189;SDS011;50749;51.636;4.948;2023-04-03T03:38:08;1.80;;;0.82;;
59189;SDS011;50749;51.636;4.948;2023-04-03T03:40:34;1.73;;;0.80;;
59189;SDS011;50749;51.636;4.948;2023-04-03T03:43:00;2.17;;;0.85;;
59189;SDS011;50749;51.636;4.948;2023-04-03T03:45:26;2.55;;;0.50;;
59189;SDS011;50749;51.636;4.948;2023-04-03T03:47:53;2.38;;;0.80;;
59189;SDS011;50749;51.636;4.948;2023-04-03T03:50:18;1.20;;;0.60;;
59189;SDS011;50749;51.636;4.948;2023-04-03T03:52:44;1.38;;;0.70;;
59189;SDS011;50749;51.636;4.948;2023-04-03T03:55:10;1.33;;;0.50;;
59189;SDS011;50749;51.636;4.948;2023-04-03T03:57:36;0.98;;;0.57;;
59189;SDS011;50749;51.636;4.948;2023-04-03T04:00:02;1.42;;;0.60;;
59189;SDS011;50749;51.636;4.948;2023-04-03T04:02:29;0.93;;;0.55;;
59189;SDS011;50749;51.636;4.948;2023-04-03T04:04:55;1.27;;;0.50;;
59189;SDS011;50749;51.636;4.948;2023-04-03T04:07:22;1.55;;;0.60;;
59189;SDS011;50749;51.636;4.948;2023-04-03T04:09:47;1.23;;;0.65;;
59189;SDS011;50749;51.636;4.948;2023-04-03T04:12:13;0.95;;;0.60;;
59189;SDS011;50749;51.636;4.948;2023-04-03T04:14:39;0.90;;;0.60;;
59189;SDS011;50749;51.636;4.948;2023-04-03T04:17:06;0.80;;;0.60;;
59189;SDS011;50749;51.636;4.948;2023-04-03T04:19:31;1.05;;;0.60;;
59189;SDS011;50749;51.636;4.948;2023-04-03T04:21:58;1.33;;;0.50;;
59189;SDS011;50749;51.636;4.948;2023-04-03T04:24:24;1.40;;;0.68;;
59189;SDS011;50749;51.636;4.948;2023-04-03T04:26:50;4.07;;;0.98;;
59189;SDS011;50749;51.636;4.948;2023-04-03T04:29:16;27.55;;;4.32;;
59189;SDS011;50749;51.636;4.948;2023-04-03T04:31:42;15.45;;;3.03;;
59189;SDS011;50749;51.636;4.948;2023-04-03T04:34:07;7.88;;;2.47;;
59189;SDS011;50749;51.636;4.948;2023-04-03T04:36:33;5.90;;;1.60;;
59189;SDS011;50749;51.636;4.948;2023-04-03T04:38:59;7.35;;;1.92;;
59189;SDS011;50749;51.636;4.948;2023-04-03T04:41:25;6.00;;;1.60;;
59189;SDS011;50749;51.636;4.948;2023-04-03T04:43:51;6.90;;;1.65;;
59189;SDS011;50749;51.636;4.948;2023-04-03T04:46:18;7.00;;;1.27;;
59189;SDS011;50749;51.636;4.948;2023-04-03T04:48:44;3.42;;;1.20;;
59189;SDS011;50749;51.636;4.948;2023-04-03T04:51:10;6.07;;;1.10;;
59189;SDS011;50749;51.636;4.948;2023-04-03T04:53:36;3.97;;;1.00;;
59189;SDS011;50749;51.636;4.948;2023-04-03T04:56:03;5.50;;;1.23;;
59189;SDS011;50749;51.636;4.948;2023-04-03T04:58:29;6.05;;;1.33;;
59189;SDS011;50749;51.636;4.948;2023-04-03T05:00:59;4.75;;;1.25;;
59189;SDS011;50749;51.636;4.948;2023-04-03T05:03:26;4.15;;;0.93;;
59189;SDS011;50749;51.636;4.948;2023-04-03T05:05:53;4.78;;;0.82;;
59189;SDS011;50749;51.636;4.948;2023-04-03T05:08:20;3.10;;;0.80;;
59189;SDS011;50749;51.636;4.948;2023-04-03T05:10:46;2.70;;;0.85;;
59189;SDS011;50749;51.636;4.948;2023-04-03T05:13:13;6.00;;;1.00;;
59189;SDS011;50749;51.636;4.948;2023-04-03T05:15:39;3.65;;;1.00;;
59189;SDS011;50749;51.636;4.948;2023-04-03T05:18:05;2.40;;;0.90;;
59189;SDS011;50749;51.636;4.948;2023-04-03T05:20:32;3.20;;;1.00;;
59189;SDS011;50749;51.636;4.948;2023-04-03T05:22:58;1.30;;;0.68;;
59189;SDS011;50749;51.636;4.948;2023-04-03T05:25:26;4.32;;;1.10;;
59189;SDS011;50749;51.636;4.948;2023-04-03T05:27:52;2.38;;;0.82;;
59189;SDS011;50749;51.636;4.948;2023-04-03T05:30:19;1.75;;;0.60;;
59189;SDS011;50749;51.636;4.948;2023-04-03T05:32:45;4.53;;;0.77;;
59189;SDS011;50749;51.636;4.948;2023-04-03T05:35:11;2.00;;;0.98;;
59189;SDS011;50749;51.636;4.948;2023-04-03T05:37:36;2.97;;;0.93;;
59189;SDS011;50749;51.636;4.948;2023-04-03T05:40:03;4.22;;;0.68;;
59189;SDS011;50749;51.636;4.948;2023-04-03T05:42:30;2.92;;;1.02;;
59189;SDS011;50749;51.636;4.948;2023-04-03T05:44:57;1.67;;;0.70;;
59189;SDS011;50749;51.636;4.948;2023-04-03T05:47:23;1.67;;;0.55;;
59189;SDS011;50749;51.636;4.948;2023-04-03T05:49:49;3.33;;;0.60;;
59189;SDS011;50749;51.636;4.948;2023-04-03T05:52:28;8.07;;;1.10;;
59189;SDS011;50749;51.636;4.948;2023-04-03T05:55:00;4.60;;;0.98;;
59189;SDS011;50749;51.636;4.948;2023-04-03T05:57:28;1.48;;;0.80;;
59189;SDS011;50749;51.636;4.948;2023-04-03T05:59:55;4.55;;;1.17;;
59189;SDS011;50749;51.636;4.948;2023-04-03T06:02:21;2.42;;;0.70;;
59189;SDS011;50749;51.636;4.948;2023-04-03T06:04:50;1.23;;;0.55;;
59189;SDS011;50749;51.636;4.948;2023-04-03T06:07:17;2.35;;;0.80;;
59189;SDS011;50749;51.636;4.948;2023-04-03T06:09:46;2.67;;;0.70;;
59189;SDS011;50749;51.636;4.948;2023-04-03T06:12:13;1.98;;;0.70;;
59189;SDS011;50749;51.636;4.948;2023-04-03T06:14:39;1.55;;;0.73;;
59189;SDS011;50749;51.636;4.948;2023-04-03T06:17:06;2.97;;;0.82;;
59189;SDS011;50749;51.636;4.948;2023-04-03T06:19:35;1.40;;;0.70;;
59189;SDS011;50749;51.636;4.948;2023-04-03T06:22:01;1.38;;;0.70;;
59189;SDS011;50749;51.636;4.948;2023-04-03T06:24:28;2.58;;;0.70;;
59189;SDS011;50749;51.636;4.948;2023-04-03T06:26:57;1.73;;;0.60;;
59189;SDS011;50749;51.636;4.948;2023-04-03T06:29:24;2.35;;;0.93;;
59189;SDS011;50749;51.636;4.948;2023-04-03T06:31:50;2.92;;;0.70;;
59189;SDS011;50749;51.636;4.948;2023-04-03T06:34:16;2.08;;;0.40;;
59189;SDS011;50749;51.636;4.948;2023-04-03T06:36:43;1.83;;;0.63;;
59189;SDS011;50749;51.636;4.948;2023-04-03T06:39:12;3.20;;;0.93;;
59189;SDS011;50749;51.636;4.948;2023-04-03T06:41:40;2.65;;;0.80;;
59189;SDS011;50749;51.636;4.948;2023-04-03T06:44:06;2.97;;;0.60;;
59189;SDS011;50749;51.636;4.948;2023-04-03T06:46:33;5.57;;;0.80;;
59189;SDS011;50749;51.636;4.948;2023-04-03T06:48:59;2.92;;;0.70;;
59189;SDS011;50749;51.636;4.948;2023-04-03T06:51:25;1.65;;;0.60;;
59189;SDS011;50749;51.636;4.948;2023-04-03T06:53:54;1.27;;;0.57;;
59189;SDS011;50749;51.636;4.948;2023-04-03T06:56:21;1.35;;;0.40;;
59189;SDS011;50749;51.636;4.948;2023-04-03T06:58:48;2.95;;;0.73;;
59189;SDS011;50749;51.636;4.948;2023-04-03T07:01:15;2.20;;;0.60;;
59189;SDS011;50749;51.636;4.948;2023-04-03T07:03:43;2.35;;;0.73;;
59189;SDS011;50749;51.636;4.948;2023-04-03T07:06:11;6.28;;;0.75;;
59189;SDS011;50749;51.636;4.948;2023-04-03T07:08:38;1.48;;;0.63;;
59189;SDS011;50749;51.636;4.948;2023-04-03T07:11:05;1.08;;;0.65;;
59189;SDS011;50749;51.636;4.948;2023-04-03T07:13:32;1.58;;;0.60;;
59189;SDS011;50749;51.636;4.948;2023-04-03T07:15:59;1.15;;;0.55;;
59189;SDS011;50749;51.636;4.948;2023-04-03T07:18:26;2.40;;;0.60;;
59189;SDS011;50749;51.636;4.948;2023-04-03T07:20:52;2.15;;;0.70;;
59189;SDS011;50749;51.636;4.948;2023-04-03T07:23:19;2.28;;;0.60;;
59189;SDS011;50749;51.636;4.948;2023-04-03T07:25:45;1.88;;;0.73;;
59189;SDS011;50749;51.636;4.948;2023-04-03T07:28:12;1.38;;;0.52;;
59189;SDS011;50749;51.636;4.948;2023-04-03T07:30:46;3.95;;;0.68;;
59189;SDS011;50749;51.636;4.948;2023-04-03T07:33:18;1.05;;;0.50;;
59189;SDS011;50749;51.636;4.948;2023-04-03T07:35:45;2.05;;;0.57;;
59189;SDS011;50749;51.636;4.948;2023-04-03T07:38:12;2.85;;;0.77;;
59189;SDS011;50749;51.636;4.948;2023-04-03T07:40:38;1.25;;;0.50;;
59189;SDS011;50749;51.636;4.948;2023-04-03T07:43:06;2.80;;;0.82;;
59189;SDS011;50749;51.636;4.948;2023-04-03T07:45:35;1.98;;;0.50;;
59189;SDS011;50749;51.636;4.948;2023-04-03T07:48:01;2.10;;;0.70;;
59189;SDS011;50749;51.636;4.948;2023-04-03T07:50:27;1.75;;;0.90;;
59189;SDS011;50749;51.636;4.948;2023-04-03T07:52:53;1.55;;;0.70;;
59189;SDS011;50749;51.636;4.948;2023-04-03T07:55:21;2.33;;;0.85;;
59189;SDS011;50749;51.636;4.948;2023-04-03T07:57:47;1.60;;;0.63;;
59189;SDS011;50749;51.636;4.948;2023-04-03T08:00:13;1.48;;;0.65;;
59189;SDS011;50749;51.636;4.948;2023-04-03T08:02:40;1.13;;;0.45;;
59189;SDS011;50749;51.636;4.948;2023-04-03T08:05:07;2.22;;;0.50;;
59189;SDS011;50749;51.636;4.948;2023-04-03T08:07:33;1.95;;;0.80;;
59189;SDS011;50749;51.636;4.948;2023-04-03T08:09:59;3.05;;;0.60;;
59189;SDS011;50749;51.636;4.948;2023-04-03T08:12:25;2.95;;;0.60;;
59189;SDS011;50749;51.636;4.948;2023-04-03T08:14:50;0.98;;;0.60;;
59189;SDS011;50749;51.636;4.948;2023-04-03T08:17:16;1.02;;;0.60;;
59189;SDS011;50749;51.636;4.948;2023-04-03T08:19:42;2.72;;;0.63;;
59189;SDS011;50749;51.636;4.948;2023-04-03T08:22:08;3.90;;;0.70;;
59189;SDS011;50749;51.636;4.948;2023-04-03T08:24:34;2.38;;;0.60;;
59189;SDS011;50749;51.636;4.948;2023-04-03T08:27:01;1.13;;;0.60;;
59189;SDS011;50749;51.636;4.948;2023-04-03T08:29:27;2.80;;;0.65;;
59189;SDS011;50749;51.636;4.948;2023-04-03T08:31:55;1.27;;;0.50;;
59189;SDS011;50749;51.636;4.948;2023-04-03T08:34:20;0.80;;;0.50;;
59189;SDS011;50749;51.636;4.948;2023-04-03T08:36:46;2.85;;;0.90;;
59189;SDS011;50749;51.636;4.948;2023-04-03T08:39:12;3.65;;;0.77;;
59189;SDS011;50749;51.636;4.948;2023-04-03T08:41:40;2.20;;;0.70;;
59189;SDS011;50749;51.636;4.948;2023-04-03T08:47:04;2.08;;;0.52;;
59189;SDS011;50749;51.636;4.948;2023-04-03T08:49:45;2.60;;;0.90;;
59189;SDS011;50749;51.636;4.948;2023-04-03T08:52:39;1.80;;;0.55;;
59189;SDS011;50749;51.636;4.948;2023-04-03T08:55:53;1.35;;;0.60;;
59189;SDS011;50749;51.636;4.948;2023-04-03T08:58:02;2.17;;;0.63;;
59189;SDS011;50749;51.636;4.948;2023-04-03T09:00:37;2.55;;;0.95;;
59189;SDS011;50749;51.636;4.948;2023-04-03T09:03:14;2.17;;;0.65;;
59189;SDS011;50749;51.636;4.948;2023-04-03T09:14:29;1.80;;;0.52;;
59189;SDS011;50749;51.636;4.948;2023-04-03T09:17:06;1.67;;;0.63;;
59189;SDS011;50749;51.636;4.948;2023-04-03T09:19:43;2.10;;;0.60;;
59189;SDS011;50749;51.636;4.948;2023-04-03T09:22:27;3.97;;;0.73;;
59189;SDS011;50749;51.636;4.948;2023-04-03T09:25:31;1.40;;;0.60;;
59189;SDS011;50749;51.636;4.948;2023-04-03T09:28:00;2.85;;;0.70;;
59189;SDS011;50749;51.636;4.948;2023-04-03T09:30:28;1.85;;;0.50;;
59189;SDS011;50749;51.636;4.948;2023-04-03T09:32:56;1.95;;;0.50;;
59189;SDS011;50749;51.636;4.948;2023-04-03T09:35:24;1.92;;;0.88;;
59189;SDS011;50749;51.636;4.948;2023-04-03T09:38:14;1.58;;;0.60;;
59189;SDS011;50749;51.636;4.948;2023-04-03T09:40:43;1.08;;;0.60;;
59189;SDS011;50749;51.636;4.948;2023-04-03T09:45:44;0.80;;;0.47;;
59189;SDS011;50749;51.636;4.948;2023-04-03T09:58:42;0.47;;;0.30;;
59189;SDS011;50749;51.636;4.948;2023-04-03T10:04:12;1.08;;;0.45;;
59189;SDS011;50749;51.636;4.948;2023-04-03T10:06:44;0.98;;;0.52;;
59189;SDS011;50749;51.636;4.948;2023-04-03T10:09:17;1.27;;;0.50;;
59189;SDS011;50749;51.636;4.948;2023-04-03T10:14:37;2.22;;;0.50;;
59189;SDS011;50749;51.636;4.948;2023-04-03T10:17:26;1.15;;;0.38;;
59189;SDS011;50749;51.636;4.948;2023-04-03T10:20:01;1.33;;;0.50;;
59189;SDS011;50749;51.636;4.948;2023-04-03T10:28:45;0.20;;;0.20;;
59189;SDS011;50749;51.636;4.948;2023-04-03T10:31:25;1.42;;;0.50;;
59189;SDS011;50749;51.636;4.948;2023-04-03T10:34:18;1.13;;;0.68;;
59189;SDS011;50749;51.636;4.948;2023-04-03T10:42:18;1.77;;;1.05;;
59189;SDS011;50749;51.636;4.948;2023-04-03T10:47:36;1.17;;;0.50;;
59189;SDS011;50749;51.636;4.948;2023-04-03T10:58:27;1.40;;;0.40;;
59189;SDS011;50749;51.636;4.948;2023-04-03T11:01:01;1.77;;;0.40;;
59189;SDS011;50749;51.636;4.948;2023-04-03T11:06:05;1.25;;;0.40;;
59189;SDS011;50749;51.636;4.948;2023-04-03T11:08:38;1.35;;;0.30;;
59189;SDS011;50749;51.636;4.948;2023-04-03T11:11:15;1.77;;;0.70;;
59189;SDS011;50749;51.636;4.948;2023-04-03T11:14:00;0.93;;;0.40;;
59189;SDS011;50749;51.636;4.948;2023-04-03T11:16:30;1.20;;;0.40;;
59189;SDS011;50749;51.636;4.948;2023-04-03T11:19:02;0.68;;;0.40;;
59189;SDS011;50749;51.636;4.948;2023-04-03T11:21:44;0.45;;;0.25;;
59189;SDS011;50749;51.636;4.948;2023-04-03T11:24:20;1.35;;;0.38;;
59189;SDS011;50749;51.636;4.948;2023-04-03T11:26:52;0.95;;;0.35;;
59189;SDS011;50749;51.636;4.948;2023-04-03T11:29:23;0.65;;;0.40;;
59189;SDS011;50749;51.636;4.948;2023-04-03T11:34:36;1.35;;;0.40;;
59189;SDS011;50749;51.636;4.948;2023-04-03T11:37:11;0.95;;;0.50;;
59189;SDS011;50749;51.636;4.948;2023-04-03T11:39:40;1.40;;;0.55;;
59189;SDS011;50749;51.636;4.948;2023-04-03T11:44:45;1.20;;;0.30;;
59189;SDS011;50749;51.636;4.948;2023-04-03T11:47:11;0.70;;;0.40;;
59189;SDS011;50749;51.636;4.948;2023-04-03T11:53:25;1.50;;;0.30;;
59189;SDS011;50749;51.636;4.948;2023-04-03T11:59:14;0.65;;;0.35;;
59189;SDS011;50749;51.636;4.948;2023-04-03T12:01:48;0.73;;;0.30;;
59189;SDS011;50749;51.636;4.948;2023-04-03T12:04:17;1.45;;;0.43;;
59189;SDS011;50749;51.636;4.948;2023-04-03T12:09:23;0.80;;;0.20;;
59189;SDS011;50749;51.636;4.948;2023-04-03T12:11:49;1.13;;;0.30;;
59189;SDS011;50749;51.636;4.948;2023-04-03T12:14:16;0.70;;;0.30;;
59189;SDS011;50749;51.636;4.948;2023-04-03T12:16:44;0.20;;;0.20;;
59189;SDS011;50749;51.636;4.948;2023-04-03T12:29:25;1.95;;;0.45;;
59189;SDS011;50749;51.636;4.948;2023-04-03T12:38:11;1.13;;;0.50;;
59189;SDS011;50749;51.636;4.948;2023-04-03T12:48:34;0.88;;;0.25;;
59189;SDS011;50749;51.636;4.948;2023-04-03T12:51:42;0.30;;;0.20;;
59189;SDS011;50749;51.636;4.948;2023-04-03T12:57:10;1.40;;;0.50;;
59189;SDS011;50749;51.636;4.948;2023-04-03T13:02:31;1.13;;;0.38;;
59189;SDS011;50749;51.636;4.948;2023-04-03T13:05:04;0.73;;;0.28;;
59189;SDS011;50749;51.636;4.948;2023-04-03T13:07:34;0.77;;;0.40;;
59189;SDS011;50749;51.636;4.948;2023-04-03T13:10:14;0.38;;;0.38;;
59189;SDS011;50749;51.636;4.948;2023-04-03T13:12:46;0.93;;;0.35;;
59189;SDS011;50749;51.636;4.948;2023-04-03T13:15:58;1.45;;;0.20;;
59189;SDS011;50749;51.636;4.948;2023-04-03T13:18:20;0.80;;;0.30;;
59189;SDS011;50749;51.636;4.948;2023-04-03T13:20:58;0.28;;;0.20;;
59189;SDS011;50749;51.636;4.948;2023-04-03T13:23:40;0.88;;;0.50;;
59189;SDS011;50749;51.636;4.948;2023-04-03T13:26:15;0.77;;;0.40;;
59189;SDS011;50749;51.636;4.948;2023-04-03T13:28:42;1.23;;;0.32;;
59189;SDS011;50749;51.636;4.948;2023-04-03T13:33:54;0.80;;;0.30;;
59189;SDS011;50749;51.636;4.948;2023-04-03T13:36:21;1.42;;;0.50;;
59189;SDS011;50749;51.636;4.948;2023-04-03T13:41:47;0.43;;;0.32;;
59189;SDS011;50749;51.636;4.948;2023-04-03T13:44:17;0.45;;;0.30;;
59189;SDS011;50749;51.636;4.948;2023-04-03T13:46:51;1.00;;;0.35;;
59189;SDS011;50749;51.636;4.948;2023-04-03T13:51:48;0.32;;;0.20;;
59189;SDS011;50749;51.636;4.948;2023-04-03T13:54:20;1.00;;;0.32;;
59189;SDS011;50749;51.636;4.948;2023-04-03T13:56:57;1.60;;;0.50;;
59189;SDS011;50749;51.636;4.948;2023-04-03T13:59:32;4.15;;;0.40;;
59189;SDS011;50749;51.636;4.948;2023-04-03T14:04:29;4.32;;;0.40;;
59189;SDS011;50749;51.636;4.948;2023-04-03T14:06:56;1.10;;;0.60;;
59189;SDS011;50749;51.636;4.948;2023-04-03T14:09:23;1.65;;;0.50;;
59189;SDS011;50749;51.636;4.948;2023-04-03T14:11:52;1.05;;;0.45;;
59189;SDS011;50749;51.636;4.948;2023-04-03T14:14:23;5.15;;;0.57;;
59189;SDS011;50749;51.636;4.948;2023-04-03T14:16:53;0.55;;;0.30;;
59189;SDS011;50749;51.636;4.948;2023-04-03T14:19:26;1.50;;;0.30;;
59189;SDS011;50749;51.636;4.948;2023-04-03T14:21:57;2.03;;;0.73;;
59189;SDS011;50749;51.636;4.948;2023-04-03T14:24:24;2.30;;;0.93;;
59189;SDS011;50749;51.636;4.948;2023-04-03T14:26:51;0.90;;;0.40;;
59189;SDS011;50749;51.636;4.948;2023-04-03T14:29:19;0.82;;;0.35;;
59189;SDS011;50749;51.636;4.948;2023-04-03T14:31:46;1.15;;;0.60;;
59189;SDS011;50749;51.636;4.948;2023-04-03T14:34:13;1.48;;;0.40;;
59189;SDS011;50749;51.636;4.948;2023-04-03T14:36:40;2.22;;;0.50;;
59189;SDS011;50749;51.636;4.948;2023-04-03T14:39:11;1.67;;;0.40;;
59189;SDS011;50749;51.636;4.948;2023-04-03T14:41:43;1.05;;;0.40;;
59189;SDS011;50749;51.636;4.948;2023-04-03T14:44:10;1.13;;;0.50;;
59189;SDS011;50749;51.636;4.948;2023-04-03T14:46:36;0.30;;;0.20;;
59189;SDS011;50749;51.636;4.948;2023-04-03T14:49:14;0.77;;;0.40;;
59189;SDS011;50749;51.636;4.948;2023-04-03T14:51:43;0.55;;;0.30;;
59189;SDS011;50749;51.636;4.948;2023-04-03T14:54:12;4.03;;;0.60;;
59189;SDS011;50749;51.636;4.948;2023-04-03T14:56:40;1.15;;;0.30;;
59189;SDS011;50749;51.636;4.948;2023-04-03T14:59:11;0.28;;;0.25;;
59189;SDS011;50749;51.636;4.948;2023-04-03T15:01:38;1.25;;;0.60;;
59189;SDS011;50749;51.636;4.948;2023-04-03T15:04:13;1.35;;;0.50;;
59189;SDS011;50749;51.636;4.948;2023-04-03T15:06:40;0.80;;;0.30;;
59189;SDS011;50749;51.636;4.948;2023-04-03T15:11:49;0.63;;;0.32;;
59189;SDS011;50749;51.636;4.948;2023-04-03T15:14:16;0.50;;;0.30;;
59189;SDS011;50749;51.636;4.948;2023-04-03T15:16:43;1.40;;;0.47;;
59189;SDS011;50749;51.636;4.948;2023-04-03T15:19:10;0.95;;;0.43;;
59189;SDS011;50749;51.636;4.948;2023-04-03T15:21:36;1.25;;;0.63;;
59189;SDS011;50749;51.636;4.948;2023-04-03T15:24:03;1.10;;;0.43;;
59189;SDS011;50749;51.636;4.948;2023-04-03T15:26:29;2.13;;;0.50;;
59189;SDS011;50749;51.636;4.948;2023-04-03T15:28:55;1.30;;;0.55;;
59189;SDS011;50749;51.636;4.948;2023-04-03T15:31:21;0.73;;;0.40;;
59189;SDS011;50749;51.636;4.948;2023-04-03T15:33:47;1.02;;;0.30;;
59189;SDS011;50749;51.636;4.948;2023-04-03T15:36:12;1.52;;;0.50;;
59189;SDS011;50749;51.636;4.948;2023-04-03T15:38:38;0.80;;;0.45;;
59189;SDS011;50749;51.636;4.948;2023-04-03T15:41:04;2.17;;;0.60;;
59189;SDS011;50749;51.636;4.948;2023-04-03T15:43:31;1.58;;;0.50;;
59189;SDS011;50749;51.636;4.948;2023-04-03T15:45:59;4.00;;;0.50;;
59189;SDS011;50749;51.636;4.948;2023-04-03T15:48:26;0.70;;;0.28;;
59189;SDS011;50749;51.636;4.948;2023-04-03T15:50:53;1.27;;;0.43;;
59189;SDS011;50749;51.636;4.948;2023-04-03T15:53:19;1.52;;;0.70;;
59189;SDS011;50749;51.636;4.948;2023-04-03T15:55:46;3.70;;;0.55;;
59189;SDS011;50749;51.636;4.948;2023-04-03T15:58:12;1.58;;;0.38;;
59189;SDS011;50749;51.636;4.948;2023-04-03T16:00:38;2.30;;;0.65;;
59189;SDS011;50749;51.636;4.948;2023-04-03T16:03:06;3.72;;;0.88;;
59189;SDS011;50749;51.636;4.948;2023-04-03T16:05:37;6.50;;;0.82;;
59189;SDS011;50749;51.636;4.948;2023-04-03T16:08:04;7.53;;;1.15;;
59189;SDS011;50749;51.636;4.948;2023-04-03T16:10:32;4.88;;;1.00;;
59189;SDS011;50749;51.636;4.948;2023-04-03T16:12:59;5.53;;;1.33;;
59189;SDS011;50749;51.636;4.948;2023-04-03T16:15:25;6.80;;;1.08;;
59189;SDS011;50749;51.636;4.948;2023-04-03T16:17:52;6.07;;;1.25;;
59189;SDS011;50749;51.636;4.948;2023-04-03T16:20:18;3.58;;;0.93;;
59189;SDS011;50749;51.636;4.948;2023-04-03T16:22:45;6.80;;;1.10;;
59189;SDS011;50749;51.636;4.948;2023-04-03T16:25:11;5.03;;;0.77;;
59189;SDS011;50749;51.636;4.948;2023-04-03T16:27:38;4.22;;;1.02;;
59189;SDS011;50749;51.636;4.948;2023-04-03T16:30:05;3.15;;;0.95;;
59189;SDS011;50749;51.636;4.948;2023-04-03T16:32:35;4.45;;;1.13;;
59189;SDS011;50749;51.636;4.948;2023-04-03T16:35:02;3.03;;;0.85;;
59189;SDS011;50749;51.636;4.948;2023-04-03T16:37:29;6.25;;;1.80;;
59189;SDS011;50749;51.636;4.948;2023-04-03T16:39:55;3.10;;;1.10;;
59189;SDS011;50749;51.636;4.948;2023-04-03T16:42:21;7.03;;;0.73;;
59189;SDS011;50749;51.636;4.948;2023-04-03T16:44:48;2.55;;;0.90;;
59189;SDS011;50749;51.636;4.948;2023-04-03T16:47:14;2.35;;;0.80;;
59189;SDS011;50749;51.636;4.948;2023-04-03T16:49:42;2.55;;;0.80;;
59189;SDS011;50749;51.636;4.948;2023-04-03T16:52:08;2.90;;;1.00;;
59189;SDS011;50749;51.636;4.948;2023-04-03T16:54:34;2.70;;;0.82;;